sensor_id;sensor_type;location;lat;lon;timestamp;temperature;humidity
22108;DHT22;11220;48.812;9.128;2023-08-12T00:00:16;22.50;93.80
22108;DHT22;11220;48.812;9.128;2023-08-12T00:02:43;22.20;93.70
22108;DHT22;11220;48.812;9.128;2023-08-12T00:05:10;22.20;93.80
22108;DHT22;11220;48.812;9.128;2023-08-12T00:07:37;22.30;93.80
22108;DHT22;11220;48.812;9.128;2023-08-12T00:10:04;22.30;93.80
22108;DHT22;11220;48.812;9.128;2023-08-12T00:12:33;22.20;93.80
22108;DHT22;11220;48.812;9.128;2023-08-12T00:14:59;22.20;93.80
22108;DHT22;11220;48.812;9.128;2023-08-12T00:17:25;22.20;93.80
22108;DHT22;11220;48.812;9.128;2023-08-12T00:19:50;22.20;93.80
22108;DHT22;11220;48.812;9.128;2023-08-12T00:22:16;22.20;93.80
22108;DHT22;11220;48.812;9.128;2023-08-12T00:24:41;22.30;93.90
22108;DHT22;11220;48.812;9.128;2023-08-12T00:27:07;22.20;93.90
22108;DHT22;11220;48.812;9.128;2023-08-12T00:29:34;22.30;93.90
22108;DHT22;11220;48.812;9.128;2023-08-12T00:32:00;22.40;94.00
22108;DHT22;11220;48.812;9.128;2023-08-12T00:34:26;22.10;93.90
22108;DHT22;11220;48.812;9.128;2023-08-12T00:36:51;22.10;93.90
22108;DHT22;11220;48.812;9.128;2023-08-12T00:39:17;22.40;94.00
22108;DHT22;11220;48.812;9.128;2023-08-12T00:41:42;22.10;94.00
22108;DHT22;11220;48.812;9.128;2023-08-12T00:44:08;22.10;94.00
22108;DHT22;11220;48.812;9.128;2023-08-12T00:46:34;22.20;94.00
22108;DHT22;11220;48.812;9.128;2023-08-12T00:49:00;22.20;94.00
22108;DHT22;11220;48.812;9.128;2023-08-12T00:51:27;22.10;94.00
22108;DHT22;11220;48.812;9.128;2023-08-12T00:53:52;22.10;94.00
22108;DHT22;11220;48.812;9.128;2023-08-12T00:56:19;22.10;94.00
22108;DHT22;11220;48.812;9.128;2023-08-12T00:58:45;22.10;94.10
22108;DHT22;11220;48.812;9.128;2023-08-12T01:01:11;22.20;94.10
22108;DHT22;11220;48.812;9.128;2023-08-12T01:03:37;22.00;94.00
22108;DHT22;11220;48.812;9.128;2023-08-12T01:06:03;22.10;94.10
22108;DHT22;11220;48.812;9.128;2023-08-12T01:08:31;22.00;94.00
22108;DHT22;11220;48.812;9.128;2023-08-12T01:14:12;22.10;94.10
22108;DHT22;11220;48.812;9.128;2023-08-12T01:16:42;22.10;94.10
22108;DHT22;11220;48.812;9.128;2023-08-12T01:19:16;22.10;94.10
22108;DHT22;11220;48.812;9.128;2023-08-12T01:21:47;22.10;94.10
22108;DHT22;11220;48.812;9.128;2023-08-12T01:24:14;22.00;94.10
22108;DHT22;11220;48.812;9.128;2023-08-12T01:26:40;22.10;94.10
22108;DHT22;11220;48.812;9.128;2023-08-12T01:29:05;22.00;94.10
22108;DHT22;11220;48.812;9.128;2023-08-12T01:31:37;22.00;94.20
22108;DHT22;11220;48.812;9.128;2023-08-12T01:34:30;22.00;94.20
22108;DHT22;11220;48.812;9.128;2023-08-12T01:37:00;22.00;94.60
22108;DHT22;11220;48.812;9.128;2023-08-12T01:39:28;22.00;94.20
22108;DHT22;11220;48.812;9.128;2023-08-12T01:41:55;22.00;94.20
22108;DHT22;11220;48.812;9.128;2023-08-12T01:44:21;21.80;94.20
22108;DHT22;11220;48.812;9.128;2023-08-12T01:46:47;21.90;94.20
22108;DHT22;11220;48.812;9.128;2023-08-12T01:49:12;22.00;94.20
22108;DHT22;11220;48.812;9.128;2023-08-12T01:51:38;22.00;94.30
22108;DHT22;11220;48.812;9.128;2023-08-12T01:54:04;21.90;94.20
22108;DHT22;11220;48.812;9.128;2023-08-12T01:56:29;21.90;94.70
22108;DHT22;11220;48.812;9.128;2023-08-12T01:58:55;21.90;94.20
22108;DHT22;11220;48.812;9.128;2023-08-12T02:01:20;21.90;94.30
22108;DHT22;11220;48.812;9.128;2023-08-12T02:03:46;22.40;94.40
22108;DHT22;11220;48.812;9.128;2023-08-12T02:06:11;22.10;94.30
22108;DHT22;11220;48.812;9.128;2023-08-12T02:08:37;21.90;94.30
22108;DHT22;11220;48.812;9.128;2023-08-12T02:11:02;21.90;94.30
22108;DHT22;11220;48.812;9.128;2023-08-12T02:13:28;21.90;94.40
22108;DHT22;11220;48.812;9.128;2023-08-12T02:15:53;21.90;94.40
22108;DHT22;11220;48.812;9.128;2023-08-12T02:18:19;22.00;94.40
22108;DHT22;11220;48.812;9.128;2023-08-12T02:20:47;21.80;94.40
22108;DHT22;11220;48.812;9.128;2023-08-12T02:23:13;21.70;94.40
22108;DHT22;11220;48.812;9.128;2023-08-12T02:25:38;22.00;94.50
22108;DHT22;11220;48.812;9.128;2023-08-12T02:28:04;21.90;94.50
22108;DHT22;11220;48.812;9.128;2023-08-12T02:30:30;21.80;94.60
22108;DHT22;11220;48.812;9.128;2023-08-12T02:32:56;21.80;94.60
22108;DHT22;11220;48.812;9.128;2023-08-12T02:35:21;21.90;94.70
22108;DHT22;11220;48.812;9.128;2023-08-12T02:37:48;21.80;94.70
22108;DHT22;11220;48.812;9.128;2023-08-12T02:40:14;22.00;94.80
22108;DHT22;11220;48.812;9.128;2023-08-12T02:42:39;21.80;94.70
22108;DHT22;11220;48.812;9.128;2023-08-12T02:45:05;21.90;94.80
22108;DHT22;11220;48.812;9.128;2023-08-12T02:47:31;21.80;94.80
22108;DHT22;11220;48.812;9.128;2023-08-12T02:49:56;21.80;94.80
22108;DHT22;11220;48.812;9.128;2023-08-12T02:52:22;21.80;94.90
22108;DHT22;11220;48.812;9.128;2023-08-12T02:54:48;21.80;94.90
22108;DHT22;11220;48.812;9.128;2023-08-12T02:57:13;21.80;94.90
22108;DHT22;11220;48.812;9.128;2023-08-12T02:59:39;22.00;95.00
22108;DHT22;11220;48.812;9.128;2023-08-12T03:02:04;21.80;95.00
22108;DHT22;11220;48.812;9.128;2023-08-12T03:04:30;21.80;95.00
22108;DHT22;11220;48.812;9.128;2023-08-12T03:06:55;21.80;95.00
22108;DHT22;11220;48.812;9.128;2023-08-12T03:09:21;21.80;95.00
22108;DHT22;11220;48.812;9.128;2023-08-12T03:11:46;21.80;95.00
22108;DHT22;11220;48.812;9.128;2023-08-12T03:14:12;21.80;95.10
22108;DHT22;11220;48.812;9.128;2023-08-12T03:16:38;21.70;95.00
22108;DHT22;11220;48.812;9.128;2023-08-12T03:19:03;21.80;95.10
22108;DHT22;11220;48.812;9.128;2023-08-12T03:21:29;21.80;95.10
22108;DHT22;11220;48.812;9.128;2023-08-12T03:23:54;21.80;95.10
22108;DHT22;11220;48.812;9.128;2023-08-12T03:26:20;21.80;95.20
22108;DHT22;11220;48.812;9.128;2023-08-12T03:28:46;21.70;95.20
22108;DHT22;11220;48.812;9.128;2023-08-12T03:31:11;21.80;95.20
22108;DHT22;11220;48.812;9.128;2023-08-12T03:33:37;21.90;95.30
22108;DHT22;11220;48.812;9.128;2023-08-12T03:36:02;21.70;95.30
22108;DHT22;11220;48.812;9.128;2023-08-12T03:38:28;21.80;95.30
22108;DHT22;11220;48.812;9.128;2023-08-12T03:40:53;21.70;95.30
22108;DHT22;11220;48.812;9.128;2023-08-12T03:43:19;22.50;95.60
22108;DHT22;11220;48.812;9.128;2023-08-12T03:45:45;21.70;95.40
22108;DHT22;11220;48.812;9.128;2023-08-12T03:48:11;21.70;95.40
22108;DHT22;11220;48.812;9.128;2023-08-12T03:50:37;21.70;95.40
22108;DHT22;11220;48.812;9.128;2023-08-12T03:53:03;21.70;95.50
22108;DHT22;11220;48.812;9.128;2023-08-12T03:55:33;21.80;95.50
22108;DHT22;11220;48.812;9.128;2023-08-12T03:57:59;21.70;95.50
22108;DHT22;11220;48.812;9.128;2023-08-12T04:00:25;21.70;95.50
22108;DHT22;11220;48.812;9.128;2023-08-12T04:02:51;21.70;95.50
22108;DHT22;11220;48.812;9.128;2023-08-12T04:05:16;21.70;95.60
22108;DHT22;11220;48.812;9.128;2023-08-12T04:07:42;21.70;95.60
22108;DHT22;11220;48.812;9.128;2023-08-12T04:10:08;21.70;95.60
22108;DHT22;11220;48.812;9.128;2023-08-12T04:12:33;21.70;95.60
22108;DHT22;11220;48.812;9.128;2023-08-12T04:14:59;21.80;95.70
22108;DHT22;11220;48.812;9.128;2023-08-12T04:17:27;21.70;95.70
22108;DHT22;11220;48.812;9.128;2023-08-12T04:19:53;21.70;95.70
22108;DHT22;11220;48.812;9.128;2023-08-12T04:22:18;21.70;95.80
22108;DHT22;11220;48.812;9.128;2023-08-12T04:24:44;21.70;95.80
22108;DHT22;11220;48.812;9.128;2023-08-12T04:27:09;21.70;95.80
22108;DHT22;11220;48.812;9.128;2023-08-12T04:29:36;21.70;95.90
22108;DHT22;11220;48.812;9.128;2023-08-12T04:32:01;21.70;95.90
22108;DHT22;11220;48.812;9.128;2023-08-12T04:34:27;21.80;95.90
22108;DHT22;11220;48.812;9.128;2023-08-12T04:36:52;21.80;96.00
22108;DHT22;11220;48.812;9.128;2023-08-12T04:39:18;21.70;96.00
22108;DHT22;11220;48.812;9.128;2023-08-12T04:41:43;21.70;96.00
22108;DHT22;11220;48.812;9.128;2023-08-12T04:44:09;21.70;96.00
22108;DHT22;11220;48.812;9.128;2023-08-12T04:46:34;21.70;96.00
22108;DHT22;11220;48.812;9.128;2023-08-12T04:49:00;21.70;96.10
22108;DHT22;11220;48.812;9.128;2023-08-12T04:51:25;21.70;96.10
22108;DHT22;11220;48.812;9.128;2023-08-12T04:53:51;21.70;96.10
22108;DHT22;11220;48.812;9.128;2023-08-12T04:56:16;22.00;96.20
22108;DHT22;11220;48.812;9.128;2023-08-12T04:58:42;21.70;96.20
22108;DHT22;11220;48.812;9.128;2023-08-12T05:01:08;21.70;96.20
22108;DHT22;11220;48.812;9.128;2023-08-12T05:03:33;21.80;96.30
22108;DHT22;11220;48.812;9.128;2023-08-12T05:05:59;21.70;96.30
22108;DHT22;11220;48.812;9.128;2023-08-12T05:08:25;21.70;96.40
22108;DHT22;11220;48.812;9.128;2023-08-12T05:10:50;21.70;96.40
22108;DHT22;11220;48.812;9.128;2023-08-12T05:13:16;21.70;96.40
22108;DHT22;11220;48.812;9.128;2023-08-12T05:15:45;21.70;96.50
22108;DHT22;11220;48.812;9.128;2023-08-12T05:18:12;21.70;96.60
22108;DHT22;11220;48.812;9.128;2023-08-12T05:20:42;21.80;96.70
22108;DHT22;11220;48.812;9.128;2023-08-12T05:23:08;21.70;96.70
22108;DHT22;11220;48.812;9.128;2023-08-12T05:25:33;21.70;96.70
22108;DHT22;11220;48.812;9.128;2023-08-12T05:27:59;21.70;96.80
22108;DHT22;11220;48.812;9.128;2023-08-12T05:30:25;21.60;96.80
22108;DHT22;11220;48.812;9.128;2023-08-12T05:32:50;21.70;96.90
22108;DHT22;11220;48.812;9.128;2023-08-12T05:35:16;21.70;97.00
22108;DHT22;11220;48.812;9.128;2023-08-12T05:37:41;21.70;97.00
22108;DHT22;11220;48.812;9.128;2023-08-12T05:40:08;21.60;97.00
22108;DHT22;11220;48.812;9.128;2023-08-12T05:42:35;21.70;97.10
22108;DHT22;11220;48.812;9.128;2023-08-12T05:45:01;21.70;97.20
22108;DHT22;11220;48.812;9.128;2023-08-12T05:47:26;21.70;97.20
22108;DHT22;11220;48.812;9.128;2023-08-12T05:49:52;21.70;97.30
22108;DHT22;11220;48.812;9.128;2023-08-12T05:52:17;21.70;97.40
22108;DHT22;11220;48.812;9.128;2023-08-12T05:54:43;21.70;97.40
22108;DHT22;11220;48.812;9.128;2023-08-12T05:57:08;21.70;97.50
22108;DHT22;11220;48.812;9.128;2023-08-12T05:59:34;21.70;97.50
22108;DHT22;11220;48.812;9.128;2023-08-12T06:01:59;21.70;97.60
22108;DHT22;11220;48.812;9.128;2023-08-12T06:04:25;21.70;97.60
22108;DHT22;11220;48.812;9.128;2023-08-12T06:06:50;21.70;97.70
22108;DHT22;11220;48.812;9.128;2023-08-12T06:09:16;21.70;97.80
22108;DHT22;11220;48.812;9.128;2023-08-12T06:11:41;21.70;97.80
22108;DHT22;11220;48.812;9.128;2023-08-12T06:14:07;21.80;97.80
22108;DHT22;11220;48.812;9.128;2023-08-12T06:16:33;22.50;98.00
22108;DHT22;11220;48.812;9.128;2023-08-12T06:18:59;21.80;97.70
22108;DHT22;11220;48.812;9.128;2023-08-12T06:21:24;21.70;97.40
22108;DHT22;11220;48.812;9.128;2023-08-12T06:23:50;21.80;97.30
22108;DHT22;11220;48.812;9.128;2023-08-12T06:26:15;21.80;97.30
22108;DHT22;11220;48.812;9.128;2023-08-12T06:28:41;21.80;97.30
22108;DHT22;11220;48.812;9.128;2023-08-12T06:31:06;21.80;97.30
22108;DHT22;11220;48.812;9.128;2023-08-12T06:33:32;22.20;97.40
22108;DHT22;11220;48.812;9.128;2023-08-12T06:35:57;22.10;97.40
22108;DHT22;11220;48.812;9.128;2023-08-12T06:38:23;21.90;97.40
22108;DHT22;11220;48.812;9.128;2023-08-12T06:40:48;21.90;97.30
22108;DHT22;11220;48.812;9.128;2023-08-12T06:43:14;21.90;97.30
22108;DHT22;11220;48.812;9.128;2023-08-12T06:45:39;22.00;97.20
22108;DHT22;11220;48.812;9.128;2023-08-12T06:48:05;21.90;97.20
22108;DHT22;11220;48.812;9.128;2023-08-12T06:50:31;22.00;97.20
22108;DHT22;11220;48.812;9.128;2023-08-12T06:52:58;22.00;97.10
22108;DHT22;11220;48.812;9.128;2023-08-12T06:55:24;21.90;97.10
22108;DHT22;11220;48.812;9.128;2023-08-12T06:57:49;22.00;97.20
22108;DHT22;11220;48.812;9.128;2023-08-12T07:00:15;22.20;97.20
22108;DHT22;11220;48.812;9.128;2023-08-12T07:02:40;22.00;97.20
22108;DHT22;11220;48.812;9.128;2023-08-12T07:05:08;22.00;97.30
22108;DHT22;11220;48.812;9.128;2023-08-12T07:07:33;22.00;97.30
22108;DHT22;11220;48.812;9.128;2023-08-12T07:09:59;22.00;97.40
22108;DHT22;11220;48.812;9.128;2023-08-12T07:12:24;22.10;97.50
22108;DHT22;11220;48.812;9.128;2023-08-12T07:14:50;22.00;97.50
22108;DHT22;11220;48.812;9.128;2023-08-12T07:17:15;22.40;97.70
22108;DHT22;11220;48.812;9.128;2023-08-12T07:19:41;22.40;97.70
22108;DHT22;11220;48.812;9.128;2023-08-12T07:22:07;22.20;97.70
22108;DHT22;11220;48.812;9.128;2023-08-12T07:24:33;22.10;97.70
22108;DHT22;11220;48.812;9.128;2023-08-12T07:26:58;22.10;97.70
22108;DHT22;11220;48.812;9.128;2023-08-12T07:29:24;22.00;97.70
22108;DHT22;11220;48.812;9.128;2023-08-12T07:31:51;22.10;97.80
22108;DHT22;11220;48.812;9.128;2023-08-12T07:34:17;22.10;97.80
22108;DHT22;11220;48.812;9.128;2023-08-12T07:36:43;22.20;97.80
22108;DHT22;11220;48.812;9.128;2023-08-12T07:39:08;22.80;98.00
22108;DHT22;11220;48.812;9.128;2023-08-12T07:41:34;22.20;97.80
22108;DHT22;11220;48.812;9.128;2023-08-12T07:43:59;22.10;97.80
22108;DHT22;11220;48.812;9.128;2023-08-12T07:46:25;22.20;97.80
22108;DHT22;11220;48.812;9.128;2023-08-12T07:48:50;22.20;98.10
22108;DHT22;11220;48.812;9.128;2023-08-12T07:51:16;22.20;97.70
22108;DHT22;11220;48.812;9.128;2023-08-12T07:53:41;22.20;97.70
22108;DHT22;11220;48.812;9.128;2023-08-12T07:56:07;22.20;97.70
22108;DHT22;11220;48.812;9.128;2023-08-12T07:58:34;22.20;97.60
22108;DHT22;11220;48.812;9.128;2023-08-12T08:00:59;22.20;97.60
22108;DHT22;11220;48.812;9.128;2023-08-12T08:03:25;22.20;97.50
22108;DHT22;11220;48.812;9.128;2023-08-12T08:05:50;22.20;97.40
22108;DHT22;11220;48.812;9.128;2023-08-12T08:08:17;22.20;97.40
22108;DHT22;11220;48.812;9.128;2023-08-12T08:10:43;22.20;97.40
22108;DHT22;11220;48.812;9.128;2023-08-12T08:13:09;22.30;97.40
22108;DHT22;11220;48.812;9.128;2023-08-12T08:15:34;22.20;97.40
22108;DHT22;11220;48.812;9.128;2023-08-12T08:18:00;22.30;97.30
22108;DHT22;11220;48.812;9.128;2023-08-12T08:20:26;22.30;97.10
22108;DHT22;11220;48.812;9.128;2023-08-12T08:22:52;22.30;96.90
22108;DHT22;11220;48.812;9.128;2023-08-12T08:25:20;22.40;96.80
22108;DHT22;11220;48.812;9.128;2023-08-12T08:27:46;22.30;96.70
22108;DHT22;11220;48.812;9.128;2023-08-12T08:30:12;22.30;96.60
22108;DHT22;11220;48.812;9.128;2023-08-12T08:32:37;22.30;96.60
22108;DHT22;11220;48.812;9.128;2023-08-12T08:35:03;22.30;96.60
22108;DHT22;11220;48.812;9.128;2023-08-12T08:37:29;22.30;96.50
22108;DHT22;11220;48.812;9.128;2023-08-12T08:39:54;22.40;96.50
22108;DHT22;11220;48.812;9.128;2023-08-12T08:42:20;22.50;96.50
22108;DHT22;11220;48.812;9.128;2023-08-12T08:44:48;22.40;96.40
22108;DHT22;11220;48.812;9.128;2023-08-12T08:47:17;22.70;96.50
22108;DHT22;11220;48.812;9.128;2023-08-12T08:49:44;22.40;96.30
22108;DHT22;11220;48.812;9.128;2023-08-12T08:52:10;22.40;96.30
22108;DHT22;11220;48.812;9.128;2023-08-12T08:54:36;22.50;96.30
22108;DHT22;11220;48.812;9.128;2023-08-12T08:57:02;22.40;96.30
22108;DHT22;11220;48.812;9.128;2023-08-12T08:59:28;22.40;96.20
22108;DHT22;11220;48.812;9.128;2023-08-12T09:01:54;22.40;96.20
22108;DHT22;11220;48.812;9.128;2023-08-12T09:04:21;22.40;96.20
22108;DHT22;11220;48.812;9.128;2023-08-12T09:06:49;22.40;96.20
22108;DHT22;11220;48.812;9.128;2023-08-12T09:09:19;22.50;96.20
22108;DHT22;11220;48.812;9.128;2023-08-12T09:11:45;22.40;96.20
22108;DHT22;11220;48.812;9.128;2023-08-12T09:14:11;22.50;96.20
22108;DHT22;11220;48.812;9.128;2023-08-12T09:16:37;22.50;96.30
22108;DHT22;11220;48.812;9.128;2023-08-12T09:19:03;22.60;96.40
22108;DHT22;11220;48.812;9.128;2023-08-12T09:21:28;22.80;96.40
22108;DHT22;11220;48.812;9.128;2023-08-12T09:23:54;22.60;96.40
22108;DHT22;11220;48.812;9.128;2023-08-12T09:26:21;22.50;96.30
22108;DHT22;11220;48.812;9.128;2023-08-12T09:28:48;22.50;96.40
22108;DHT22;11220;48.812;9.128;2023-08-12T09:31:31;22.60;96.40
22108;DHT22;11220;48.812;9.128;2023-08-12T09:34:07;22.60;96.40
22108;DHT22;11220;48.812;9.128;2023-08-12T09:36:33;22.60;96.40
22108;DHT22;11220;48.812;9.128;2023-08-12T09:38:59;22.60;96.40
22108;DHT22;11220;48.812;9.128;2023-08-12T09:41:28;22.60;96.40
22108;DHT22;11220;48.812;9.128;2023-08-12T09:43:55;22.80;96.50
22108;DHT22;11220;48.812;9.128;2023-08-12T09:46:23;22.60;96.50
22108;DHT22;11220;48.812;9.128;2023-08-12T09:48:51;22.70;96.60
22108;DHT22;11220;48.812;9.128;2023-08-12T09:51:18;22.70;96.50
22108;DHT22;11220;48.812;9.128;2023-08-12T09:53:45;22.80;96.60
22108;DHT22;11220;48.812;9.128;2023-08-12T09:56:13;22.70;96.70
22108;DHT22;11220;48.812;9.128;2023-08-12T09:58:39;22.80;96.70
22108;DHT22;11220;48.812;9.128;2023-08-12T10:01:12;22.80;96.80
22108;DHT22;11220;48.812;9.128;2023-08-12T10:03:38;22.80;96.90
22108;DHT22;11220;48.812;9.128;2023-08-12T10:06:05;22.80;97.00
22108;DHT22;11220;48.812;9.128;2023-08-12T10:08:31;22.70;97.00
22108;DHT22;11220;48.812;9.128;2023-08-12T10:10:57;22.80;97.10
22108;DHT22;11220;48.812;9.128;2023-08-12T10:13:23;22.70;97.00
22108;DHT22;11220;48.812;9.128;2023-08-12T10:15:50;22.80;97.10
22108;DHT22;11220;48.812;9.128;2023-08-12T10:18:15;22.80;97.00
22108;DHT22;11220;48.812;9.128;2023-08-12T10:20:43;22.80;97.00
22108;DHT22;11220;48.812;9.128;2023-08-12T10:23:13;22.70;97.00
22108;DHT22;11220;48.812;9.128;2023-08-12T10:25:41;22.70;97.00
22108;DHT22;11220;48.812;9.128;2023-08-12T10:28:08;22.80;97.00
22108;DHT22;11220;48.812;9.128;2023-08-12T10:30:34;22.80;96.90
22108;DHT22;11220;48.812;9.128;2023-08-12T10:33:00;23.50;97.10
22108;DHT22;11220;48.812;9.128;2023-08-12T10:35:46;22.80;96.90
22108;DHT22;11220;48.812;9.128;2023-08-12T10:38:20;22.80;97.00
22108;DHT22;11220;48.812;9.128;2023-08-12T10:40:46;22.80;97.10
22108;DHT22;11220;48.812;9.128;2023-08-12T10:43:13;22.80;97.10
22108;DHT22;11220;48.812;9.128;2023-08-12T10:45:52;22.80;97.10
22108;DHT22;11220;48.812;9.128;2023-08-12T10:48:24;22.90;97.10
22108;DHT22;11220;48.812;9.128;2023-08-12T10:50:58;22.90;97.10
22108;DHT22;11220;48.812;9.128;2023-08-12T10:53:25;22.90;97.10
22108;DHT22;11220;48.812;9.128;2023-08-12T10:55:56;22.90;97.10
22108;DHT22;11220;48.812;9.128;2023-08-12T10:58:33;22.90;97.10
22108;DHT22;11220;48.812;9.128;2023-08-12T11:00:59;22.80;97.10
22108;DHT22;11220;48.812;9.128;2023-08-12T11:03:25;23.00;97.00
22108;DHT22;11220;48.812;9.128;2023-08-12T11:05:50;23.20;97.00
22108;DHT22;11220;48.812;9.128;2023-08-12T11:08:16;22.90;96.80
22108;DHT22;11220;48.812;9.128;2023-08-12T11:10:43;23.10;96.70
22108;DHT22;11220;48.812;9.128;2023-08-12T11:13:09;23.00;96.80
22108;DHT22;11220;48.812;9.128;2023-08-12T11:15:43;23.00;96.80
22108;DHT22;11220;48.812;9.128;2023-08-12T11:18:16;23.10;96.70
22108;DHT22;11220;48.812;9.128;2023-08-12T11:20:42;23.00;96.70
22108;DHT22;11220;48.812;9.128;2023-08-12T11:23:09;23.10;96.70
22108;DHT22;11220;48.812;9.128;2023-08-12T11:25:36;23.10;96.60
22108;DHT22;11220;48.812;9.128;2023-08-12T11:28:04;23.10;96.60
22108;DHT22;11220;48.812;9.128;2023-08-12T11:30:30;23.10;96.60
22108;DHT22;11220;48.812;9.128;2023-08-12T11:32:55;23.10;96.60
22108;DHT22;11220;48.812;9.128;2023-08-12T11:35:23;23.10;96.50
22108;DHT22;11220;48.812;9.128;2023-08-12T11:37:52;23.10;96.50
22108;DHT22;11220;48.812;9.128;2023-08-12T11:40:22;23.10;96.50
22108;DHT22;11220;48.812;9.128;2023-08-12T11:42:50;23.10;96.60
22108;DHT22;11220;48.812;9.128;2023-08-12T11:45:20;23.20;96.60
22108;DHT22;11220;48.812;9.128;2023-08-12T11:47:46;23.40;96.60
22108;DHT22;11220;48.812;9.128;2023-08-12T11:50:19;23.10;96.50
22108;DHT22;11220;48.812;9.128;2023-08-12T11:52:48;23.20;96.50
22108;DHT22;11220;48.812;9.128;2023-08-12T11:55:14;23.20;96.60
22108;DHT22;11220;48.812;9.128;2023-08-12T11:57:40;23.30;96.70
22108;DHT22;11220;48.812;9.128;2023-08-12T12:00:09;23.10;96.70
22108;DHT22;11220;48.812;9.128;2023-08-12T12:02:40;23.20;96.80
22108;DHT22;11220;48.812;9.128;2023-08-12T12:05:13;23.20;97.00
22108;DHT22;11220;48.812;9.128;2023-08-12T12:07:39;23.20;97.10
22108;DHT22;11220;48.812;9.128;2023-08-12T12:10:05;23.20;97.20
22108;DHT22;11220;48.812;9.128;2023-08-12T12:12:33;23.20;97.20
22108;DHT22;11220;48.812;9.128;2023-08-12T12:15:00;23.50;97.20
22108;DHT22;11220;48.812;9.128;2023-08-12T12:17:26;23.10;97.10
22108;DHT22;11220;48.812;9.128;2023-08-12T12:19:59;22.90;97.00
22108;DHT22;11220;48.812;9.128;2023-08-12T12:22:32;23.20;97.00
22108;DHT22;11220;48.812;9.128;2023-08-12T12:25:08;23.10;97.00
22108;DHT22;11220;48.812;9.128;2023-08-12T12:27:34;23.10;97.00
22108;DHT22;11220;48.812;9.128;2023-08-12T12:30:02;23.10;97.00
22108;DHT22;11220;48.812;9.128;2023-08-12T12:32:27;23.10;97.00
22108;DHT22;11220;48.812;9.128;2023-08-12T12:34:53;23.10;97.00
22108;DHT22;11220;48.812;9.128;2023-08-12T12:37:25;23.10;97.00
22108;DHT22;11220;48.812;9.128;2023-08-12T12:39:50;23.10;97.10
22108;DHT22;11220;48.812;9.128;2023-08-12T12:42:16;23.10;97.20
22108;DHT22;11220;48.812;9.128;2023-08-12T12:44:41;23.20;97.40
22108;DHT22;11220;48.812;9.128;2023-08-12T12:47:07;23.00;97.30
22108;DHT22;11220;48.812;9.128;2023-08-12T12:49:33;23.10;97.40
22108;DHT22;11220;48.812;9.128;2023-08-12T12:51:58;23.20;97.60
22108;DHT22;11220;48.812;9.128;2023-08-12T12:54:24;23.10;97.60
22108;DHT22;11220;48.812;9.128;2023-08-12T12:56:49;23.10;97.60
22108;DHT22;11220;48.812;9.128;2023-08-12T12:59:15;23.70;97.80
22108;DHT22;11220;48.812;9.128;2023-08-12T13:01:41;23.10;97.60
22108;DHT22;11220;48.812;9.128;2023-08-12T13:04:07;23.10;97.60
22108;DHT22;11220;48.812;9.128;2023-08-12T13:06:34;23.10;97.60
22108;DHT22;11220;48.812;9.128;2023-08-12T13:08:59;23.00;97.70
22108;DHT22;11220;48.812;9.128;2023-08-12T13:11:25;23.30;98.00
22108;DHT22;11220;48.812;9.128;2023-08-12T13:14:04;23.00;97.70
22108;DHT22;11220;48.812;9.128;2023-08-12T13:16:30;23.10;97.80
22108;DHT22;11220;48.812;9.128;2023-08-12T13:18:56;23.30;97.80
22108;DHT22;11220;48.812;9.128;2023-08-12T13:21:24;23.20;97.80
22108;DHT22;11220;48.812;9.128;2023-08-12T13:23:49;23.10;97.80
22108;DHT22;11220;48.812;9.128;2023-08-12T13:26:15;23.10;97.90
22108;DHT22;11220;48.812;9.128;2023-08-12T13:28:41;23.70;98.10
22108;DHT22;11220;48.812;9.128;2023-08-12T13:31:06;23.20;98.00
22108;DHT22;11220;48.812;9.128;2023-08-12T13:33:32;23.20;98.10
22108;DHT22;11220;48.812;9.128;2023-08-12T13:35:57;23.20;98.20
22108;DHT22;11220;48.812;9.128;2023-08-12T13:38:23;23.10;98.30
22108;DHT22;11220;48.812;9.128;2023-08-12T13:40:49;23.20;98.30
22108;DHT22;11220;48.812;9.128;2023-08-12T13:43:14;23.30;98.40
22108;DHT22;11220;48.812;9.128;2023-08-12T13:45:40;23.20;98.50
22108;DHT22;11220;48.812;9.128;2023-08-12T13:48:05;23.20;98.60
22108;DHT22;11220;48.812;9.128;2023-08-12T13:50:31;23.30;98.80
22108;DHT22;11220;48.812;9.128;2023-08-12T13:52:58;23.30;98.90
22108;DHT22;11220;48.812;9.128;2023-08-12T13:55:24;23.40;98.90
22108;DHT22;11220;48.812;9.128;2023-08-12T13:57:49;23.40;98.90
22108;DHT22;11220;48.812;9.128;2023-08-12T14:00:15;23.50;98.90
22108;DHT22;11220;48.812;9.128;2023-08-12T14:02:41;23.50;98.80
22108;DHT22;11220;48.812;9.128;2023-08-12T14:05:07;23.50;98.80
22108;DHT22;11220;48.812;9.128;2023-08-12T14:07:33;23.60;98.80
22108;DHT22;11220;48.812;9.128;2023-08-12T14:09:59;23.50;98.70
22108;DHT22;11220;48.812;9.128;2023-08-12T14:12:25;23.70;98.90
22108;DHT22;11220;48.812;9.128;2023-08-12T14:14:51;23.70;98.90
22108;DHT22;11220;48.812;9.128;2023-08-12T14:17:16;23.70;98.80
22108;DHT22;11220;48.812;9.128;2023-08-12T14:19:44;23.60;98.80
22108;DHT22;11220;48.812;9.128;2023-08-12T14:22:13;23.60;98.90
22108;DHT22;11220;48.812;9.128;2023-08-12T14:24:38;23.70;98.90
22108;DHT22;11220;48.812;9.128;2023-08-12T14:27:04;23.80;98.90
22108;DHT22;11220;48.812;9.128;2023-08-12T14:29:29;23.60;98.90
22108;DHT22;11220;48.812;9.128;2023-08-12T14:31:55;23.60;98.80
22108;DHT22;11220;48.812;9.128;2023-08-12T14:34:21;23.60;98.80
22108;DHT22;11220;48.812;9.128;2023-08-12T14:36:46;23.60;98.80
22108;DHT22;11220;48.812;9.128;2023-08-12T14:39:12;23.60;98.70
22108;DHT22;11220;48.812;9.128;2023-08-12T14:41:37;23.60;98.60
22108;DHT22;11220;48.812;9.128;2023-08-12T14:44:03;23.50;98.60
22108;DHT22;11220;48.812;9.128;2023-08-12T14:46:29;23.60;98.80
22108;DHT22;11220;48.812;9.128;2023-08-12T14:48:54;23.60;98.90
22108;DHT22;11220;48.812;9.128;2023-08-12T14:51:22;23.60;99.00
22108;DHT22;11220;48.812;9.128;2023-08-12T14:53:47;23.60;99.00
22108;DHT22;11220;48.812;9.128;2023-08-12T14:56:13;23.60;99.20
22108;DHT22;11220;48.812;9.128;2023-08-12T14:58:39;23.70;99.30
22108;DHT22;11220;48.812;9.128;2023-08-12T15:01:04;23.70;99.40
22108;DHT22;11220;48.812;9.128;2023-08-12T15:03:30;23.60;99.40
22108;DHT22;11220;48.812;9.128;2023-08-12T15:06:02;23.70;99.40
22108;DHT22;11220;48.812;9.128;2023-08-12T15:08:29;23.70;99.80
22108;DHT22;11220;48.812;9.128;2023-08-12T15:10:55;23.80;99.40
22108;DHT22;11220;48.812;9.128;2023-08-12T15:13:20;23.70;99.30
22108;DHT22;11220;48.812;9.128;2023-08-12T15:15:46;23.70;99.30
22108;DHT22;11220;48.812;9.128;2023-08-12T15:18:12;23.70;99.10
22108;DHT22;11220;48.812;9.128;2023-08-12T15:20:38;23.70;99.10
22108;DHT22;11220;48.812;9.128;2023-08-12T15:23:03;23.70;99.10
22108;DHT22;11220;48.812;9.128;2023-08-12T15:25:29;23.70;99.00
22108;DHT22;11220;48.812;9.128;2023-08-12T15:27:54;23.70;99.00